createdAt,value
2017-09-12T00:01:26.894Z,1.40
2017-09-12T00:03:54.403Z,1.83
2017-09-12T00:06:21.955Z,1.73
2017-09-12T00:08:49.469Z,1.47
2017-09-12T00:11:17.303Z,1.50
2017-09-12T00:13:44.959Z,1.70
2017-09-12T00:16:13.259Z,1.87
2017-09-12T00:18:40.821Z,2.10
2017-09-12T00:21:09.092Z,1.67
2017-09-12T00:23:36.616Z,2.20
2017-09-12T00:26:04.127Z,1.20
2017-09-12T00:28:33.135Z,1.50
2017-09-12T00:31:00.678Z,1.70
2017-09-12T00:33:28.201Z,1.93
2017-09-12T00:35:56.471Z,1.77
2017-09-12T00:38:24.773Z,1.50
2017-09-12T00:40:53.657Z,1.90
2017-09-12T00:43:21.180Z,1.83
2017-09-12T00:45:49.214Z,1.80
2017-09-12T00:48:17.280Z,1.90
2017-09-12T00:50:44.813Z,1.90
2017-09-12T00:53:12.837Z,1.73
2017-09-12T00:55:40.360Z,1.80
2017-09-12T00:58:08.070Z,1.97
2017-09-12T01:00:35.572Z,1.80
2017-09-12T01:03:05.020Z,1.63
2017-09-12T01:05:32.534Z,1.90
2017-09-12T01:08:00.802Z,2.60
2017-09-12T01:10:28.324Z,2.63
2017-09-12T01:12:56.624Z,1.97
2017-09-12T01:15:24.837Z,1.73
2017-09-12T01:17:52.449Z,2.00
2017-09-12T01:20:19.980Z,1.70
2017-09-12T01:22:48.283Z,1.70
2017-09-12T01:25:16.566Z,2.10
2017-09-12T01:27:44.099Z,2.50
2017-09-12T01:30:11.603Z,2.10
2017-09-12T01:32:39.137Z,2.20
2017-09-12T01:35:08.743Z,2.17
2017-09-12T01:37:37.125Z,2.20
2017-09-12T01:40:05.405Z,1.90
2017-09-12T01:42:34.599Z,2.20
2017-09-12T01:45:02.129Z,2.17
2017-09-12T01:47:30.420Z,1.77
2017-09-12T01:49:57.927Z,1.90
2017-09-12T01:52:25.451Z,2.00
2017-09-12T01:54:53.932Z,1.90
2017-09-12T01:57:21.456Z,3.23
2017-09-12T01:59:49.016Z,2.07
2017-09-12T02:02:16.560Z,1.90
2017-09-12T02:04:45.172Z,2.43
2017-09-12T02:07:12.693Z,1.80
2017-09-12T02:09:41.085Z,1.90
2017-09-12T02:12:09.372Z,2.03
2017-09-12T02:14:36.902Z,1.97
2017-09-12T02:17:04.413Z,2.40
2017-09-12T02:19:32.508Z,1.83
2017-09-12T02:22:00.339Z,2.47
2017-09-12T02:24:27.864Z,2.10
2017-09-12T02:26:55.381Z,1.83
2017-09-12T02:29:22.909Z,2.13
2017-09-12T02:31:51.399Z,1.90
2017-09-12T02:34:29.253Z,2.27
2017-09-12T02:36:56.782Z,2.10
2017-09-12T02:39:24.353Z,2.00
2017-09-12T02:41:52.837Z,2.37
2017-09-12T02:44:20.751Z,2.43
2017-09-12T02:46:49.045Z,2.53
2017-09-12T02:49:16.581Z,1.90
2017-09-12T02:51:44.861Z,2.00
2017-09-12T02:54:13.167Z,2.13
2017-09-12T02:56:40.675Z,2.43
2017-09-12T02:59:08.222Z,2.67
2017-09-12T03:01:35.732Z,2.00
2017-09-12T03:04:03.278Z,2.23
2017-09-12T03:06:30.784Z,3.10
2017-09-12T03:08:59.076Z,2.30
2017-09-12T03:11:27.180Z,2.53
2017-09-12T03:13:55.472Z,2.53
2017-09-12T03:16:22.985Z,2.63
2017-09-12T03:18:50.508Z,1.93
2017-09-12T03:21:18.784Z,2.60
2017-09-12T03:23:46.312Z,2.20
2017-09-12T03:26:13.816Z,2.20
2017-09-12T03:28:41.952Z,2.30
2017-09-12T03:31:10.224Z,3.40
2017-09-12T03:33:37.828Z,2.60
2017-09-12T03:36:05.345Z,2.33
2017-09-12T03:38:34.057Z,2.20
2017-09-12T03:41:01.572Z,2.27
2017-09-12T03:43:29.108Z,2.20
2017-09-12T03:45:57.384Z,2.47
2017-09-12T03:48:25.806Z,2.40
2017-09-12T03:50:53.315Z,2.60
2017-09-12T03:53:21.750Z,2.30
2017-09-12T03:55:49.328Z,2.87
2017-09-12T03:58:17.609Z,2.23
2017-09-12T04:00:45.138Z,2.30
2017-09-12T04:03:12.653Z,2.60
2017-09-12T04:05:40.792Z,2.50
2017-09-12T04:08:09.072Z,2.17
2017-09-12T04:10:37.463Z,3.13
2017-09-12T04:13:05.769Z,2.50
2017-09-12T04:15:33.844Z,2.53
2017-09-12T04:18:01.513Z,2.07
2017-09-12T04:20:29.032Z,2.67
2017-09-12T04:22:57.464Z,2.53
2017-09-12T04:25:25.827Z,2.17
2017-09-12T04:27:54.105Z,1.90
2017-09-12T04:30:22.393Z,1.97
2017-09-12T04:32:49.908Z,2.40
2017-09-12T04:35:17.433Z,2.50
2017-09-12T04:37:44.940Z,2.40
2017-09-12T04:40:13.237Z,2.30
2017-09-12T04:42:40.753Z,3.47
2017-09-12T04:45:08.281Z,2.30
2017-09-12T04:47:35.823Z,2.40
2017-09-12T04:50:03.344Z,2.67
2017-09-12T04:52:30.853Z,2.87
2017-09-12T04:54:58.392Z,2.90
2017-09-12T04:57:26.672Z,2.57
2017-09-12T04:59:54.197Z,2.03
2017-09-12T05:02:21.705Z,2.53
2017-09-12T05:04:49.233Z,2.47
2017-09-12T05:07:17.508Z,3.20
2017-09-12T05:09:45.829Z,3.10
2017-09-12T05:12:13.343Z,3.10
2017-09-12T05:14:40.875Z,2.50
2017-09-12T05:17:08.383Z,2.93
2017-09-12T05:19:36.702Z,2.77
2017-09-12T05:22:04.212Z,2.63
2017-09-12T05:24:32.504Z,2.63
2017-09-12T05:27:00.022Z,3.13
2017-09-12T05:29:27.546Z,3.13
2017-09-12T05:31:55.076Z,2.60
2017-09-12T05:34:23.365Z,2.70
2017-09-12T05:36:50.892Z,2.40
2017-09-12T05:39:18.396Z,2.87
2017-09-12T05:41:45.924Z,2.83
2017-09-12T05:44:14.204Z,2.37
2017-09-12T05:46:42.493Z,2.77
2017-09-12T05:49:10.004Z,2.80
2017-09-12T05:51:37.532Z,3.67
2017-09-12T05:54:05.056Z,3.83
2017-09-12T05:56:33.349Z,3.20
2017-09-12T05:59:00.862Z,2.63
2017-09-12T06:01:28.386Z,2.70
2017-09-12T06:03:55.891Z,2.90
2017-09-12T06:06:23.419Z,2.10
2017-09-12T06:08:50.933Z,2.37
2017-09-12T06:11:19.230Z,3.60
2017-09-12T06:13:46.740Z,2.20
2017-09-12T06:16:14.269Z,2.90
2017-09-12T06:18:41.777Z,3.30
2017-09-12T06:21:10.073Z,3.80
2017-09-12T06:23:37.590Z,2.60
2017-09-12T06:26:05.127Z,2.50
2017-09-12T06:28:32.650Z,2.53
2017-09-12T06:31:00.181Z,2.00
2017-09-12T06:33:27.683Z,2.90
2017-09-12T06:35:56.685Z,3.07
2017-09-12T06:38:24.209Z,2.27
2017-09-12T06:40:52.509Z,2.67
2017-09-12T06:43:20.029Z,2.60
2017-09-12T06:45:47.559Z,2.87
2017-09-12T06:48:15.075Z,2.57
2017-09-12T06:50:43.366Z,2.60
2017-09-12T06:53:10.890Z,2.43
2017-09-12T06:55:38.414Z,2.03
2017-09-12T06:58:05.929Z,2.80
2017-09-12T07:00:34.230Z,2.40
2017-09-12T07:03:01.741Z,3.20
2017-09-12T07:05:29.259Z,1.93
2017-09-12T07:07:56.787Z,1.57
2017-09-12T07:10:25.066Z,2.43
2017-09-12T07:12:53.353Z,2.57
2017-09-12T07:15:20.864Z,1.83
2017-09-12T07:17:49.528Z,2.27
2017-09-12T07:20:17.036Z,1.90
2017-09-12T07:22:45.804Z,2.30
2017-09-12T07:25:13.321Z,2.20
2017-09-12T07:27:40.858Z,2.20
2017-09-12T07:30:09.719Z,2.20
2017-09-12T07:32:37.243Z,1.97
2017-09-12T07:35:04.763Z,2.60
2017-09-12T07:37:33.062Z,2.07
2017-09-12T07:40:03.324Z,2.87
2017-09-12T07:42:30.879Z,2.47
2017-09-12T07:44:59.541Z,2.57
2017-09-12T07:47:27.065Z,2.50
2017-09-12T07:49:55.335Z,2.80
2017-09-12T07:52:23.624Z,1.90
2017-09-12T07:54:51.900Z,2.47
2017-09-12T07:57:20.202Z,2.40
2017-09-12T07:59:47.712Z,2.47
2017-09-12T08:02:15.243Z,3.00
2017-09-12T08:04:42.757Z,2.80
2017-09-12T08:07:11.047Z,3.30
2017-09-12T08:09:38.556Z,2.83
2017-09-12T08:12:06.094Z,2.40
2017-09-12T08:14:33.613Z,1.97
2017-09-12T08:17:01.922Z,2.17
2017-09-12T08:19:29.443Z,2.53
2017-09-12T08:21:57.732Z,3.20
2017-09-12T08:24:26.004Z,2.80
2017-09-12T08:26:54.298Z,2.67
2017-09-12T08:29:21.821Z,2.17
2017-09-12T08:31:49.354Z,2.53
2017-09-12T08:34:16.868Z,2.37
2017-09-12T08:36:45.739Z,1.83
2017-09-12T08:39:14.401Z,2.10
2017-09-12T08:41:43.069Z,3.10
2017-09-12T08:44:10.591Z,2.43
2017-09-12T08:46:38.113Z,3.00
2017-09-12T08:49:05.740Z,2.30
2017-09-12T08:51:33.262Z,2.57
2017-09-12T08:54:01.560Z,2.10
2017-09-12T08:56:29.078Z,2.63
2017-09-12T08:58:56.600Z,2.97
2017-09-12T09:01:24.122Z,2.10
2017-09-12T09:03:51.648Z,2.80
2017-09-12T09:06:19.169Z,2.00
2017-09-12T09:08:46.705Z,2.67
2017-09-12T09:11:14.225Z,3.10
2017-09-12T09:13:41.762Z,2.90
2017-09-12T09:16:09.278Z,2.17
2017-09-12T09:18:37.580Z,1.90
2017-09-12T09:21:05.088Z,2.20
2017-09-12T09:23:32.645Z,2.27
2017-09-12T09:26:00.149Z,1.63
2017-09-12T09:28:27.664Z,2.40
2017-09-12T09:30:55.197Z,2.83
2017-09-12T09:33:22.706Z,2.20
2017-09-12T09:35:51.006Z,2.70
2017-09-12T09:38:18.530Z,2.50
2017-09-12T09:40:47.263Z,2.30
2017-09-12T09:43:14.775Z,2.50
2017-09-12T09:45:42.311Z,2.65
2017-09-12T09:48:09.832Z,2.40
2017-09-12T09:50:38.719Z,2.15
2017-09-12T09:53:06.242Z,2.53
2017-09-12T09:55:33.801Z,1.65
2017-09-12T09:58:01.318Z,2.20
2017-09-12T10:00:28.851Z,2.50
2017-09-12T10:02:56.393Z,1.83
2017-09-12T10:05:24.718Z,2.00
2017-09-12T10:07:52.247Z,2.30
2017-09-12T10:10:19.758Z,2.40
2017-09-12T10:12:47.303Z,2.80
2017-09-12T10:15:14.821Z,2.57
2017-09-12T10:17:43.118Z,2.30
2017-09-12T10:20:10.635Z,2.93
2017-09-12T10:22:38.181Z,2.20
2017-09-12T10:25:05.780Z,2.00
2017-09-12T10:27:33.378Z,2.27
2017-09-12T10:30:00.898Z,2.27
2017-09-12T10:32:28.563Z,2.80
2017-09-12T10:34:56.947Z,2.27
2017-09-12T10:37:24.468Z,2.10
2017-09-12T10:39:52.009Z,1.60
2017-09-12T10:42:19.524Z,2.03
2017-09-12T10:44:47.069Z,2.00
2017-09-12T10:47:15.364Z,1.90
2017-09-12T10:49:42.914Z,3.07
2017-09-12T10:52:11.198Z,2.20
2017-09-12T10:54:38.756Z,2.27
2017-09-12T10:57:06.274Z,2.03
2017-09-12T10:59:33.796Z,3.23
2017-09-12T11:02:01.304Z,2.57
2017-09-12T11:04:28.834Z,1.83
2017-09-12T11:06:56.352Z,2.30
2017-09-12T11:09:23.880Z,2.67
2017-09-12T11:11:51.384Z,2.80
2017-09-12T11:14:18.906Z,1.97
2017-09-12T11:16:46.432Z,2.30
2017-09-12T11:19:13.968Z,2.30
2017-09-12T11:21:41.481Z,3.30
2017-09-12T11:24:09.014Z,2.78
2017-09-12T11:26:36.534Z,2.23
2017-09-12T11:29:04.068Z,2.37
2017-09-12T11:31:31.578Z,1.90
2017-09-12T11:33:59.177Z,2.00
2017-09-12T11:36:27.490Z,2.27
2017-09-12T11:38:55.033Z,2.20
2017-09-12T11:41:23.329Z,1.87
2017-09-12T11:43:50.865Z,2.57
2017-09-12T11:46:19.175Z,2.10
2017-09-12T11:48:46.961Z,1.83
2017-09-12T11:51:14.501Z,2.47
2017-09-12T11:53:42.050Z,2.13
2017-09-12T11:56:11.720Z,2.40
2017-09-12T11:58:39.252Z,2.10
2017-09-12T12:01:08.230Z,1.90
2017-09-12T12:03:35.762Z,1.87
2017-09-12T12:06:04.069Z,2.20
2017-09-12T12:08:31.578Z,1.63
2017-09-12T12:10:59.750Z,3.00
2017-09-12T12:13:27.433Z,2.30
2017-09-12T12:15:57.738Z,3.17
2017-09-12T12:18:27.403Z,2.23
2017-09-12T12:20:54.958Z,2.00
2017-09-12T12:23:22.681Z,2.83
2017-09-12T12:25:51.364Z,2.60
2017-09-12T12:28:19.699Z,2.78
2017-09-12T12:30:47.517Z,2.37
2017-09-12T12:33:15.061Z,2.05
2017-09-12T12:35:43.511Z,2.10
2017-09-12T12:38:11.181Z,2.10
2017-09-12T12:40:39.182Z,2.40
2017-09-12T12:43:06.819Z,2.23
2017-09-12T12:45:34.406Z,2.30
2017-09-12T12:48:02.133Z,2.03
2017-09-12T12:50:29.962Z,2.00
2017-09-12T12:52:57.577Z,1.90
2017-09-12T12:55:25.168Z,1.80
2017-09-12T12:57:53.465Z,1.77
2017-09-12T13:00:22.796Z,1.63
2017-09-12T13:02:51.344Z,2.00
2017-09-12T13:05:19.677Z,2.27
2017-09-12T13:07:47.329Z,1.90
2017-09-12T13:10:16.087Z,2.00
2017-09-12T13:12:43.737Z,1.60
2017-09-12T13:15:14.295Z,1.97
2017-09-12T13:17:43.750Z,1.60
2017-09-12T13:20:12.297Z,1.87
2017-09-12T13:22:39.992Z,1.40
2017-09-12T13:25:07.882Z,1.70
2017-09-12T13:27:37.098Z,2.33
2017-09-12T13:30:04.633Z,1.70
2017-09-12T13:32:32.908Z,1.83
2017-09-12T13:35:01.204Z,1.80
2017-09-12T13:37:29.476Z,1.90
2017-09-12T13:39:57.798Z,2.07
2017-09-12T13:42:25.313Z,1.73
2017-09-12T13:44:53.588Z,1.77
2017-09-12T13:47:21.889Z,1.70
2017-09-12T13:49:49.401Z,2.00
2017-09-12T13:52:16.929Z,1.70
2017-09-12T13:54:44.445Z,1.67
2017-09-12T13:57:12.746Z,1.30
2017-09-12T13:59:40.261Z,1.70
2017-09-12T14:02:07.795Z,1.90
2017-09-12T14:04:35.320Z,1.67
2017-09-12T14:07:02.885Z,1.50
2017-09-12T14:09:30.405Z,1.60
2017-09-12T14:11:57.928Z,1.17
2017-09-12T14:14:25.476Z,1.30
2017-09-12T14:16:53.004Z,1.60
2017-09-12T14:19:21.289Z,1.60
2017-09-12T14:21:48.821Z,1.70
2017-09-12T14:24:16.344Z,1.65
2017-09-12T14:26:43.880Z,1.50
2017-09-12T14:29:11.397Z,1.83
2017-09-12T14:31:39.737Z,1.67
2017-09-12T14:34:07.267Z,1.50
2017-09-12T14:36:34.805Z,1.60
2017-09-12T14:39:03.098Z,2.40
2017-09-12T14:41:30.636Z,1.43
2017-09-12T14:43:58.937Z,1.75
2017-09-12T14:46:27.240Z,2.13
2017-09-12T14:48:54.750Z,1.37
2017-09-12T14:51:22.273Z,1.90
2017-09-12T14:53:49.813Z,1.60
2017-09-12T14:56:17.344Z,1.90
2017-09-12T14:58:45.622Z,1.50
2017-09-12T15:01:13.924Z,2.00
2017-09-12T15:03:41.428Z,2.43
2017-09-12T15:06:08.957Z,2.40
2017-09-12T15:08:36.465Z,2.07
2017-09-12T15:11:03.997Z,2.00
2017-09-12T15:13:31.517Z,2.07
2017-09-12T15:15:59.065Z,1.60
2017-09-12T15:18:27.372Z,1.60
2017-09-12T15:20:54.894Z,1.17
2017-09-12T15:23:22.426Z,1.67
2017-09-12T15:25:49.946Z,2.57
2017-09-12T15:28:17.500Z,3.27
2017-09-12T15:30:45.033Z,2.07
2017-09-12T15:33:13.333Z,2.40
2017-09-12T15:35:40.894Z,1.80
2017-09-12T15:38:08.427Z,1.50
2017-09-12T15:40:36.716Z,2.20
2017-09-12T15:43:05.030Z,1.40
2017-09-12T15:45:32.554Z,1.90
2017-09-12T15:48:00.104Z,1.73
2017-09-12T15:50:28.389Z,2.10
2017-09-12T15:52:55.925Z,2.40
2017-09-12T15:55:24.213Z,2.13
2017-09-12T15:57:52.505Z,2.27
2017-09-12T16:00:20.781Z,2.40
2017-09-12T16:02:48.310Z,2.10
2017-09-12T16:05:15.845Z,2.17
2017-09-12T16:07:43.378Z,2.30
2017-09-12T16:10:10.892Z,2.67
2017-09-12T16:12:38.417Z,2.30
2017-09-12T16:15:05.964Z,2.33
2017-09-12T16:17:33.501Z,2.50
2017-09-12T16:20:01.793Z,2.10
2017-09-12T16:22:29.332Z,2.33
2017-09-12T16:24:57.612Z,3.13
2017-09-12T16:27:25.990Z,2.27
2017-09-12T16:29:54.070Z,2.60
2017-09-12T16:32:21.796Z,3.17
2017-09-12T16:34:52.195Z,3.07
2017-09-12T16:37:20.636Z,2.90
2017-09-12T16:39:48.483Z,2.93
2017-09-12T16:42:16.242Z,3.00
2017-09-12T16:44:46.357Z,2.90
2017-09-12T16:47:14.261Z,2.77
2017-09-12T16:49:41.991Z,2.57
2017-09-12T16:52:09.618Z,2.33
2017-09-12T16:54:37.172Z,2.23
2017-09-12T16:57:04.680Z,3.13
2017-09-12T16:59:33.344Z,1.87
2017-09-12T17:02:00.856Z,3.10
2017-09-12T17:04:28.379Z,3.07
2017-09-12T17:06:55.894Z,2.73
2017-09-12T17:09:23.417Z,3.10
2017-09-12T17:11:51.692Z,2.37
2017-09-12T17:14:19.989Z,2.70
2017-09-12T17:16:47.502Z,2.17
2017-09-12T17:19:15.029Z,2.63
2017-09-12T17:21:42.532Z,2.93
2017-09-12T17:24:10.060Z,2.80
2017-09-12T17:26:37.579Z,2.87
2017-09-12T17:29:05.133Z,2.73
2017-09-12T17:31:33.404Z,4.50
2017-09-12T17:34:01.681Z,2.57
2017-09-12T17:36:29.972Z,4.47
2017-09-12T17:38:57.478Z,2.63
2017-09-12T17:41:24.996Z,2.97
2017-09-12T17:43:52.509Z,3.10
2017-09-12T17:46:20.039Z,2.90
2017-09-12T17:48:47.556Z,2.70
2017-09-12T17:51:15.840Z,3.07
2017-09-12T17:53:44.110Z,2.90
2017-09-12T17:56:12.397Z,3.20
2017-09-12T17:58:39.903Z,2.97
2017-09-12T18:01:07.466Z,4.70
2017-09-12T18:03:34.971Z,3.37
2017-09-12T18:06:03.256Z,3.17
2017-09-12T18:08:30.773Z,3.60
2017-09-12T18:10:58.309Z,3.30
2017-09-12T18:13:25.888Z,2.90
2017-09-12T18:15:53.415Z,3.00
2017-09-12T18:18:20.916Z,3.00
2017-09-12T18:20:48.453Z,3.40
2017-09-12T18:23:15.956Z,3.10
2017-09-12T18:25:44.229Z,3.20
2017-09-12T18:28:12.521Z,3.20
2017-09-12T18:30:41.607Z,2.90
2017-09-12T18:33:09.900Z,3.57
2017-09-12T18:35:37.413Z,3.30
2017-09-12T18:38:04.938Z,3.70
2017-09-12T18:40:32.444Z,3.50
2017-09-12T18:43:00.729Z,3.43
2017-09-12T18:45:29.009Z,3.77
2017-09-12T18:47:57.299Z,3.60
2017-09-12T18:50:25.572Z,3.60
2017-09-12T18:52:53.883Z,4.20
2017-09-12T18:55:21.392Z,4.10
2017-09-12T18:57:48.916Z,3.90
2017-09-12T19:00:16.448Z,3.97
2017-09-12T19:02:43.982Z,3.70
2017-09-12T19:05:12.281Z,3.67
2017-09-12T19:07:39.803Z,4.00
2017-09-12T19:10:07.329Z,3.50
2017-09-12T19:12:34.832Z,4.80
2017-09-12T19:15:02.357Z,4.37
2017-09-12T19:17:29.864Z,4.97
2017-09-12T19:19:58.156Z,5.00
2017-09-12T19:22:25.681Z,5.07
2017-09-12T19:24:53.209Z,4.30
2017-09-12T19:27:20.726Z,4.80
2017-09-12T19:29:49.025Z,5.07
2017-09-12T19:32:16.537Z,3.77
2017-09-12T19:34:44.061Z,3.80
2017-09-12T19:37:11.578Z,3.40
2017-09-12T19:39:39.909Z,4.70
2017-09-12T19:42:07.433Z,4.63
2017-09-12T19:44:34.950Z,4.10
2017-09-12T19:47:02.479Z,4.53
2017-09-12T19:49:29.994Z,4.07
2017-09-12T19:51:58.281Z,3.33
2017-09-12T19:54:25.909Z,3.90
2017-09-12T19:56:53.435Z,4.00
2017-09-12T19:59:20.942Z,3.60
2017-09-12T20:01:49.247Z,3.80
2017-09-12T20:04:16.762Z,3.20
2017-09-12T20:06:44.294Z,3.43
2017-09-12T20:09:11.813Z,3.07
2017-09-12T20:11:39.355Z,3.30
2017-09-12T20:14:07.636Z,3.33
2017-09-12T20:16:35.929Z,3.13
2017-09-12T20:19:04.205Z,3.20
2017-09-12T20:21:32.506Z,3.17
2017-09-12T20:24:00.018Z,2.77
2017-09-12T20:26:27.544Z,2.60
2017-09-12T20:28:55.056Z,4.10
2017-09-12T20:31:23.364Z,2.67
2017-09-12T20:33:50.872Z,4.03
2017-09-12T20:36:18.377Z,3.10
2017-09-12T20:38:45.903Z,2.80
2017-09-12T20:41:14.172Z,2.77
2017-09-12T20:43:41.700Z,2.90
2017-09-12T20:46:09.208Z,2.60
2017-09-12T20:48:37.497Z,2.63
2017-09-12T20:51:05.018Z,2.40
2017-09-12T20:53:32.544Z,2.30
2017-09-12T20:56:00.068Z,2.20
2017-09-12T20:58:27.596Z,2.60
2017-09-12T21:00:55.123Z,2.40
2017-09-12T21:03:22.656Z,2.53
2017-09-12T21:05:50.163Z,2.67
2017-09-12T21:08:18.456Z,2.30
2017-09-12T21:10:45.961Z,2.47
2017-09-12T21:13:13.493Z,2.20
2017-09-12T21:15:41.775Z,2.13
2017-09-12T21:18:10.061Z,2.20
2017-09-12T21:20:37.573Z,2.13
2017-09-12T21:23:05.100Z,2.40
2017-09-12T21:25:32.611Z,1.80
2017-09-12T21:28:00.131Z,1.70
2017-09-12T21:30:27.644Z,2.77
2017-09-12T21:32:55.932Z,2.37
2017-09-12T21:35:24.208Z,2.30
2017-09-12T21:37:52.520Z,1.90
2017-09-12T21:40:20.024Z,2.43
2017-09-12T21:42:48.307Z,2.90
2017-09-12T21:45:16.608Z,2.80
2017-09-12T21:47:44.116Z,2.60
2017-09-12T21:50:11.655Z,2.90
2017-09-12T21:52:39.173Z,3.20
2017-09-12T21:55:07.467Z,3.50
2017-09-12T21:57:34.976Z,3.40
2017-09-12T22:00:02.494Z,3.40
2017-09-12T22:02:29.996Z,4.80
2017-09-12T22:04:57.516Z,4.30
2017-09-12T22:07:25.020Z,4.00
2017-09-12T22:09:52.545Z,4.53
2017-09-12T22:12:20.064Z,4.47
2017-09-12T22:14:48.351Z,4.00
2017-09-12T22:17:15.884Z,4.10
2017-09-12T22:24:58.130Z,4.90
2017-09-12T22:27:26.409Z,5.13
2017-09-12T22:29:54.701Z,5.10
2017-09-12T22:32:22.208Z,5.20
2017-09-12T22:34:49.755Z,4.80
2017-09-12T22:37:17.263Z,4.80
2017-09-12T22:39:45.538Z,4.80
2017-09-12T22:42:13.064Z,4.77
2017-09-12T22:44:40.573Z,5.00
2017-09-12T22:47:08.869Z,5.20
2017-09-12T22:49:36.384Z,4.80
2017-09-12T22:52:03.913Z,4.80
2017-09-12T22:54:31.417Z,4.80
2017-09-12T22:56:59.704Z,5.13
2017-09-12T22:59:27.979Z,4.60
2017-09-12T23:01:56.265Z,4.90
2017-09-12T23:04:23.780Z,4.70
2017-09-12T23:06:51.303Z,4.73
2017-09-12T23:09:18.807Z,4.77
2017-09-12T23:11:46.325Z,4.67
2017-09-12T23:14:13.837Z,5.10
2017-09-12T23:16:41.360Z,4.60
2017-09-12T23:19:08.865Z,4.90
2017-09-12T23:21:36.373Z,4.60
2017-09-12T23:24:03.896Z,5.10
2017-09-12T23:26:32.169Z,4.10
2017-09-12T23:29:00.461Z,4.80
2017-09-12T23:31:27.969Z,4.87
2017-09-12T23:33:55.517Z,5.23
2017-09-12T23:36:23.025Z,5.23
2017-09-12T23:38:51.316Z,4.67
2017-09-12T23:41:18.822Z,4.83
2017-09-12T23:43:46.345Z,5.00
2017-09-12T23:46:13.852Z,4.30
2017-09-12T23:48:41.381Z,5.03
2017-09-12T23:51:08.897Z,5.33
2017-09-12T23:53:37.192Z,4.53
2017-09-12T23:56:04.700Z,4.73
2017-09-12T23:58:32.230Z,5.00
